Home > Products > Valid Products > TAF

000
FTUS41 KBUF 190300 AAB
TAFJHW
TAF AMD
KJHW 190330Z 1904/1924 01007KT P6SM SCT250
     FM190600 01004KT P6SM FEW250
     FM191600 02009KT P6SM FEW250
      AMD LTD TO CLD VIS AND WIND=



000
FTUS41 KBUF 190200 AAA
TAFART
TAF AMD
KART 190235Z 1903/1924 22005KT P6SM BKN050
     FM190600 26005KT P6SM BKN025
     FM191100 31007KT P6SM SCT035 BKN250
     FM191400 34010KT P6SM SCT250
     FM192300 36007KT P6SM FEW250=



000
FTUS41 KBUF 190200 AAA
TAFJHW
TAF AMD
KJHW 190235Z 1903/1924 34007KT P6SM BKN010
     FM190400 35005KT P6SM SCT010
     FM190600 35005KT P6SM BKN250
     FM191600 02009KT P6SM FEW250
      AMD LTD TO CLD VIS AND WIND=



000
FTUS41 KBUF 190200 AAA
TAFROC
TAF AMD
KROC 190235Z 1903/1924 29005KT P6SM SCT035
     FM190400 29004KT P6SM BKN250
     FM190800 32004KT P6SM SCT250
     FM191400 02009KT P6SM FEW250
     FM192300 04004KT P6SM FEW250=



000
FTUS41 KBUF 190200 AAA
TAFBUF
TAF AMD
KBUF 190235Z 1903/1924 20003KT P6SM SCT040
     FM190400 36003KT P6SM SCT250
     FM191400 36004KT P6SM FEW250
     FM191900 04007KT P6SM FEW250
     FM192300 04006KT P6SM FEW140=



000
FTUS41 KBUF 190200 AAA
TAFIAG
TAF AMD
KIAG 190235Z 1903/1924 25004KT P6SM FEW040
     FM190400 27003KT P6SM SCT250
     FM191400 04004KT P6SM FEW250
     FM192300 05005KT P6SM FEW150=



000
FTUS41 KBUF 182300
TAFJHW
TAF
KJHW 182339Z 1900/1924 31014KT P6SM BKN070
     FM190300 35007KT P6SM BKN250
     FM191600 01011KT P6SM FEW250
      AMD LTD TO CLD VIS AND WIND=



000
FTUS41 KBUF 182300
TAFBUF
TAF
KBUF 182339Z 1900/1924 32008KT P6SM -SHRA BKN045
     FM190100 33004KT P6SM BKN060
     FM190400 32003KT P6SM SCT250
     FM191400 32007KT P6SM FEW250
     FM191900 36007KT P6SM FEW250
     FM192300 04006KT P6SM FEW140=



000
FTUS41 KBUF 182300
TAFART
TAF
KART 182339Z 1900/1924 28008KT P6SM OVC050
     FM190100 29007KT P6SM SHRA OVC045
     FM190300 32008KT P6SM BKN060
     FM191100 31008KT P6SM SCT035 BKN250
     FM192300 36007KT P6SM FEW250=



000
FTUS41 KBUF 182300
TAFROC
TAF
KROC 182339Z 1900/1924 33009KT P6SM SCT050
     FM190800 32007KT P6SM BKN250
     FM191400 36009KT P6SM SCT250
     FM192300 04004KT P6SM FEW250=



000
FTUS41 KBUF 182300
TAFIAG
TAF
KIAG 182339Z 1900/1924 34006KT P6SM SCT015 BKN035
     FM190200 32004KT P6SM SCT060
     FM190400 32003KT P6SM SCT250
     FM191400 36007KT P6SM FEW250
     FM192300 05005KT P6SM FEW150=



000
FTUS41 KBUF 182000 AAA
TAFART
TAF AMD
KART 182055Z 1821/1918 22012KT P6SM BKN080
     FM182300 27008KT P6SM VCSH BKN050
     FM190900 25007KT P6SM SCT015 BKN030
     FM191100 31008KT P6SM BKN035
     FM191400 34010KT P6SM SCT250=



000
FTUS41 KBUF 182000 AAA
TAFBUF
TAF AMD
KBUF 182055Z 1821/1918 25009KT P6SM BKN080
     FM182200 32009KT P6SM VCSH BKN060
     FM190300 35005KT P6SM BKN050
     FM190400 34005KT P6SM BKN250
     FM190900 28004KT P6SM SCT250
     FM191400 32007KT P6SM FEW250=



000
FTUS41 KBUF 182000 AAA
TAFJHW
TAF AMD
KJHW 182055Z 1821/1918 30012KT P6SM SCT070
     FM190100 31007KT P6SM BKN250
     FM190300 36006KT P6SM BKN250
     FM191600 01011KT P6SM FEW250
      AMD LTD TO CLD VIS AND WIND=



000
FTUS41 KBUF 182000 AAA
TAFIAG
TAF AMD
KIAG 182055Z 1821/1918 32012KT P6SM -SHRA BKN060
     FM182300 34008KT P6SM VCSH BKN050
     FM190700 30006KT P6SM SCT250
     FM191100 28005KT P6SM SCT250
     FM191400 33007KT P6SM FEW250=



000
FTUS41 KBUF 182000 AAA
TAFROC
TAF AMD
KROC 182055Z 1821/1918 36007KT P6SM BKN050
     FM190300 31007KT P6SM VCSH BKN030
     FM190400 31008KT P6SM BKN250=



000
FTUS41 KBUF 181700
TAFIAG
TAF
KIAG 181732Z 1818/1918 23011KT P6SM BKN100
     FM182300 34008KT P6SM VCSH BKN045
     FM190700 30006KT P6SM SCT250
     FM191100 28005KT P6SM SCT250
     FM191400 33007KT P6SM FEW250=



000
FTUS41 KBUF 181700
TAFBUF
TAF
KBUF 181732Z 1818/1918 25013KT P6SM BKN110
     FM182300 32009KT P6SM VCSH BKN045
     FM190300 35005KT P6SM BKN030
     FM190400 34005KT P6SM BKN250
     FM190900 28004KT P6SM SCT250
     FM191400 32007KT P6SM FEW250=



000
FTUS41 KBUF 181700
TAFJHW
TAF
KJHW 181732Z 1818/1918 27008KT P6SM BKN130
     FM190100 31007KT P6SM BKN250
     FM190300 36006KT P6SM BKN250
     FM191600 01011KT P6SM FEW250
      AMD LTD TO CLD VIS AND WIND=



000
FTUS41 KBUF 181700
TAFART
TAF
KART 181732Z 1818/1918 19013KT P6SM BKN090
     FM182100 21008KT P6SM BKN080
     FM182300 27008KT P6SM VCSH BKN040
     FM190900 25007KT P6SM SCT015 BKN020
     FM191100 31008KT P6SM BKN035
     FM191400 34010KT P6SM SCT250=



000
FTUS41 KBUF 181700
TAFROC
TAF
KROC 181732Z 1818/1918 22007KT P6SM BKN080
     FM190300 31007KT P6SM VCSH BKN030
     FM190400 31008KT P6SM BKN250=



000
FTUS41 KBUF 181500 AAA
TAFROC
TAF AMD
KROC 181500Z 1815/1912 18011KT P6SM BKN150
     FM181700 23009KT P6SM BKN120
     FM182000 28009KT P6SM OVC100=



000
FTUS41 KBUF 181500 AAA
TAFJHW
TAF AMD
KJHW 181500Z 1815/1912 18011KT P6SM BKN150
     FM181800 22013KT P6SM BKN130
     FM182100 26012KT P6SM BKN110
     FM190000 29008KT P6SM BKN070
     FM190300 33009KT P6SM BKN250
     FM190900 32005KT P6SM SCT250
      AMD LTD TO CLD VIS AND WIND=



000
FTUS41 KBUF 181500 AAA
TAFART
TAF AMD
KART 181500Z 1815/1912 21012KT P6SM BKN150
     FM182300 22005KT 6SM -SHRA OVC040
     FM190400 25009KT P6SM BKN060
     FM191100 31008KT P6SM BKN200=



000
FTUS41 KBUF 181500 AAA
TAFIAG
TAF AMD
KIAG 181500Z 1815/1912 22013KT P6SM BKN120
     FM182200 26010KT P6SM VCSH BKN050
     FM190000 30008KT P6SM VCSH BKN070
     FM190500 28007KT P6SM SCT250=



000
FTUS41 KBUF 181500 AAA
TAFBUF
TAF AMD
KBUF 181500Z 1815/1912 22012KT P6SM BKN150
     FM182000 25014KT P6SM BKN090
     FM190000 26008KT P6SM VCSH BKN050
     FM190200 30007KT P6SM BKN120
     FM190700 26006KT P6SM FEW250=



000
FTUS41 KBUF 181100
TAFART
TAF
KART 181130Z 1812/1912 17009KT P6SM SCT150
     FM181500 17014KT P6SM BKN150
     FM182300 22005KT 6SM -SHRA OVC040
     FM190400 25009KT P6SM BKN060
     FM191100 31008KT P6SM BKN200=



000
FTUS41 KBUF 181100
TAFJHW
TAF
KJHW 181130Z 1812/1912 18011KT P6SM BKN150
     FM181800 22013KT P6SM BKN130
     FM182100 26012KT P6SM BKN110
     FM190000 29008KT P6SM BKN070
     FM190300 33009KT P6SM BKN250
     FM190900 32005KT P6SM SCT250
      AMD LTD TO CLD VIS AND WIND=



000
FTUS41 KBUF 181100
TAFIAG
TAF
KIAG 181130Z 1812/1912 19009KT P6SM BKN150
     FM181500 22013KT P6SM BKN120
     FM182200 26010KT P6SM VCSH BKN050
     FM190000 30008KT P6SM VCSH BKN070
     FM190500 28007KT P6SM SCT250=



000
FTUS41 KBUF 181100
TAFROC
TAF
KROC 181130Z 1812/1912 17007KT P6SM SCT150
     FM181500 18011KT P6SM BKN150
     FM181700 23009KT P6SM BKN120
     FM182000 28009KT P6SM OVC100=



000
FTUS41 KBUF 181100
TAFBUF
TAF
KBUF 181130Z 1812/1912 17008KT P6SM SCT150
     FM181400 21012KT P6SM BKN150
     FM182000 25014KT P6SM BKN090
     FM190000 26008KT P6SM VCSH BKN050
     FM190200 30007KT P6SM BKN120
     FM190700 26006KT P6SM FEW250=



000
FTUS41 KBUF 180900 AAA
TAFIAG
TAF AMD
KIAG 180900Z 1809/1906 20010KT P6SM BKN200
     FM181400 20009KT P6SM BKN080
     FM181800 24011KT P6SM OVC045
     FM182100 29008KT P6SM BKN050
     FM182300 24006KT P6SM BKN045
     FM190300 28004KT P6SM BKN050
     FM190500 31005KT P6SM BKN150=



000
FTUS41 KBUF 180900 AAA
TAFROC
TAF AMD
KROC 180900Z 1809/1906 17008KT P6SM BKN200
     FM181500 19010KT P6SM BKN080
     FM181900 24008KT P6SM BKN060
     FM182000 28009KT P6SM OVC060
     FM190000 28005KT P6SM OVC045
     FM190500 30008KT P6SM BKN150=



000
FTUS41 KBUF 180900 AAA
TAFBUF
TAF AMD
KBUF 180900Z 1809/1906 16008KT P6SM BKN200
     FM181500 20012KT P6SM BKN050
     FM181800 24011KT P6SM OVC050
     FM182300 24007KT P6SM BKN045
     FM190500 31005KT P6SM BKN150=



000
FTUS41 KBUF 180900 AAA
TAFJHW
TAF AMD
KJHW 180900Z 1809/1906 18008KT P6SM BKN200
     FM181400 19011KT P6SM BKN150
     FM181900 23011KT P6SM BKN045
     FM182100 27010KT P6SM BKN045
     FM190000 27006KT P6SM BKN045
     FM190500 30006KT P6SM BKN150
      AMD LTD TO CLD VIS AND WIND=



000
FTUS41 KBUF 180900 AAA
TAFART
TAF AMD
KART 180900Z 1809/1906 16007KT P6SM BKN250
     FM181500 17012KT P6SM BKN150
     FM182200 21011KT P6SM OVC050
     FM190000 25010G16KT P6SM OVC040=



000
FTUS41 KBUF 180500
TAFIAG
TAF
KIAG 180532Z 1806/1906 18011KT P6SM BKN200
     FM181400 20009KT P6SM BKN080
     FM181800 24011KT P6SM OVC045
     FM182100 29008KT P6SM BKN050
     FM182300 24006KT P6SM BKN045
     FM190300 28004KT P6SM BKN050
     FM190500 31005KT P6SM BKN150=



000
FTUS41 KBUF 180500
TAFART
TAF
KART 180532Z 1806/1906 16009KT P6SM BKN250
     FM181500 17012KT P6SM BKN150
     FM182200 21011KT P6SM OVC050
     FM190000 25010G16KT P6SM OVC040=



000
FTUS41 KBUF 180500
TAFJHW
TAF
KJHW 180532Z 1806/1906 18010KT P6SM BKN200
     FM181400 19011KT P6SM BKN150
     FM181900 23011KT P6SM BKN045
     FM182100 27010KT P6SM BKN045
     FM190000 27006KT P6SM BKN045
     FM190500 30006KT P6SM BKN150
      AMD LTD TO CLD VIS AND WIND=



000
FTUS41 KBUF 180500
TAFBUF
TAF
KBUF 180532Z 1806/1906 17012KT P6SM BKN200
     FM181500 20012KT P6SM BKN050
     FM181800 24011KT P6SM OVC050
     FM182300 24007KT P6SM BKN045
     FM190500 31005KT P6SM BKN150=



000
FTUS41 KBUF 180500
TAFROC
TAF
KROC 180532Z 1806/1906 18010KT P6SM BKN200
     FM181500 19010KT P6SM BKN080
     FM181900 24008KT P6SM BKN060
     FM182000 28009KT P6SM OVC060
     FM190000 28005KT P6SM OVC045
     FM190500 30008KT P6SM BKN150=



000
FTUS41 KBUF 180200 AAA
TAFJHW
TAF AMD
KJHW 180252Z 1803/1824 16012KT P6SM SCT200
     FM181500 19013KT P6SM BKN050
     FM181900 23011KT P6SM BKN045
     FM182100 27010KT P6SM BKN045
      AMD LTD TO CLD VIS AND WIND=



000
FTUS41 KBUF 180200 AAA
TAFART
TAF AMD
KART 180252Z 1803/1824 11006KT P6SM SCT200
     FM181100 17010KT P6SM BKN200
     FM182200 21011KT P6SM OVC050=



000
FTUS41 KBUF 180200 AAA
TAFIAG
TAF AMD
KIAG 180252Z 1803/1824 VRB05KT P6SM BKN200
     FM181500 21012KT P6SM BKN050
     FM181900 25010KT P6SM OVC045
     FM182200 27007KT 6SM -SHRA BKN045=



000
FTUS41 KBUF 180200 AAA
TAFBUF
TAF AMD
KBUF 180252Z 1803/1824 16008KT P6SM BKN200
     FM181500 20012G20KT P6SM BKN050
     FM181800 24011G18KT P6SM OVC050
     FM182300 24007KT 6SM -SHRA BKN045=



000
FTUS41 KBUF 180200 AAA
TAFROC
TAF AMD
KROC 180252Z 1803/1824 16010KT P6SM BKN200
     FM181400 19011KT P6SM BKN150
     FM182000 28009KT P6SM OVC060
     FM182300 29012KT 6SM -SHRA OVC045=



000
FTUS41 KBUF 172300
TAFIAG
TAF
KIAG 172336Z 1800/1824 19006KT P6SM BKN200
     FM181500 21012KT P6SM BKN050
     FM181900 25010KT P6SM OVC045
     FM182200 27007KT 6SM -SHRA BKN045=



000
FTUS41 KBUF 172300
TAFBUF
TAF
KBUF 172336Z 1800/1824 18008KT P6SM BKN200
     FM181500 20012G20KT P6SM BKN050
     FM181800 24011G18KT P6SM OVC050
     FM182300 24007KT 6SM -SHRA BKN045=



000
FTUS41 KBUF 172300
TAFJHW
TAF
KJHW 172336Z 1800/1824 16012KT P6SM SCT200
     FM181500 19013KT P6SM BKN050
     FM181900 23011KT P6SM BKN045
     FM182100 27010KT P6SM BKN045
      AMD LTD TO CLD VIS AND WIND=



000
FTUS41 KBUF 172300
TAFART
TAF
KART 172336Z 1800/1824 16006KT P6SM SCT200
     FM181100 17010KT P6SM BKN200
     FM182200 21011KT P6SM OVC050=



000
FTUS41 KBUF 172300
TAFROC
TAF
KROC 172336Z 1800/1824 16010KT P6SM BKN200
     FM181400 19011KT P6SM BKN150
     FM182000 28009KT P6SM OVC060
     FM182300 29012KT 6SM -SHRA OVC045=



000
FTUS41 KBUF 172000 AAA
TAFIAG
TAF AMD
KIAG 172051Z 1721/1818 12005KT P6SM SCT200
     FM181200 19012KT P6SM BKN050=



000
FTUS41 KBUF 172000 AAA
TAFROC
TAF AMD
KROC 172051Z 1721/1818 19012KT P6SM BKN250
     FM172300 19006KT P6SM SCT250
     FM181300 20010G15KT P6SM BKN060=



000
FTUS41 KBUF 172000 AAA
TAFART
TAF AMD
KART 172051Z 1721/1818 16005KT P6SM SCT200
     FM181700 18010G18KT P6SM BKN060=



000
FTUS41 KBUF 172000 AAA
TAFBUF
TAF AMD
KBUF 172051Z 1721/1818 13005KT P6SM SCT200
     FM181200 19011KT P6SM BKN050=



000
FTUS41 KBUF 172000 AAA
TAFJHW
TAF AMD
KJHW 172051Z 1721/1818 16013G20KT P6SM FEW200
     FM180000 16010KT P6SM FEW200
     FM181200 19009KT P6SM BKN050
      AMD LTD TO CLD VIS AND WIND=



000
FTUS41 KBUF 171700
TAFART
TAF
KART 171720Z 1718/1818 16005KT P6SM SCT200
     FM181700 18010G18KT P6SM BKN060=



000
FTUS41 KBUF 171700
TAFROC
TAF
KROC 171720Z 1718/1818 19012KT P6SM SCT200
     FM181300 20010G15KT P6SM BKN060=



000
FTUS41 KBUF 171700
TAFIAG
TAF
KIAG 171720Z 1718/1818 17011KT P6SM SCT200
     FM181200 19012KT P6SM BKN050=



000
FTUS41 KBUF 171700
TAFBUF
TAF
KBUF 171720Z 1718/1818 17009KT P6SM SCT200
     FM181200 19011KT P6SM BKN050=



000
FTUS41 KBUF 171700
TAFJHW
TAF
KJHW 171720Z 1718/1818 16013G20KT P6SM FEW200
     FM180000 16010KT P6SM FEW200
     FM181200 19009KT P6SM BKN050
      AMD LTD TO CLD VIS AND WIND=



000
FTUS41 KBUF 171500 AAA
TAFIAG
TAF AMD
KIAG 171517Z 1715/1812 11008KT P6SM SCT250
     FM172000 15009KT P6SM SCT250
     FM180500 17014KT P6SM BKN130=



000
FTUS41 KBUF 171500 AAA
TAFBUF
TAF AMD
KBUF 171517Z 1715/1812 15009KT P6SM SCT250
     FM180500 17014KT P6SM SCT250
     FM181100 18014KT P6SM BKN060=



000
FTUS41 KBUF 171500 AAA
TAFJHW
TAF AMD
KJHW 171517Z 1715/1812 16015G20KT P6SM SCT250
     FM180000 17010KT P6SM SCT250
      AMD LTD TO CLD VIS AND WIND=



000
FTUS41 KBUF 171500 AAA
TAFROC
TAF AMD
KROC 171517Z 1715/1812 13013KT P6SM SCT250
     FM171900 14014KT P6SM SCT250
     FM180800 18015KT P6SM SCT150=



000
FTUS41 KBUF 171500 AAA
TAFART
TAF AMD
KART 171517Z 1715/1812 13008KT P6SM SCT250
     FM180500 16012KT P6SM SCT250=



000
FTUS41 KBUF 171100
TAFROC
TAF
KROC 171133Z 1712/1812 11007KT P6SM SCT250
     FM171900 14011KT P6SM SCT250
     FM180800 18015KT P6SM SCT150=



000
FTUS41 KBUF 171100
TAFJHW
TAF
KJHW 171133Z 1712/1812 15008KT P6SM SCT250
     FM171400 16014KT P6SM SCT250
      AMD LTD TO CLD VIS AND WIND=



000
FTUS41 KBUF 171100
TAFIAG
TAF
KIAG 171133Z 1712/1812 11008KT P6SM SCT250
     FM172000 15009KT P6SM SCT250
     FM180500 17014KT P6SM BKN130=



000
FTUS41 KBUF 171100
TAFBUF
TAF
KBUF 171133Z 1712/1812 11007KT P6SM SCT250
     FM171400 15009KT P6SM SCT250
     FM180500 17014KT P6SM SCT130
     FM181100 18014KT P6SM BKN060=



000
FTUS41 KBUF 171100
TAFART
TAF
KART 171133Z 1712/1812 09006KT P6SM SCT250
     FM171400 13008KT P6SM SCT150
     FM180500 16012KT P6SM SCT150=



000
FTUS41 KBUF 170800 AAA
TAFIAG
TAF AMD
KIAG 170859Z 1709/1806 10009KT P6SM SCT250
     FM171400 14010KT P6SM SCT200
     FM172200 16009KT P6SM BKN250=



000
FTUS41 KBUF 170800 AAA
TAFROC
TAF AMD
KROC 170859Z 1709/1806 11005KT P6SM SCT250
     FM171600 14009KT P6SM SCT200
     FM172200 15010KT P6SM BKN250=



000
FTUS41 KBUF 170800 AAA
TAFBUF
TAF AMD
KBUF 170859Z 1709/1806 08006KT P6SM SCT250
     FM171400 15009KT P6SM SCT200
     FM172200 16009KT P6SM BKN250=



000
FTUS41 KBUF 170800 AAA
TAFJHW
TAF AMD
KJHW 170859Z 1709/1806 13007KT P6SM SCT250
     FM171300 15011KT P6SM SCT150
     FM172200 17012KT P6SM BKN250
      AMD LTD TO CLD VIS AND WIND=



000
FTUS41 KBUF 170800 AAA
TAFART
TAF AMD
KART 170859Z 1709/1806 09004KT P6SM SCT250
     FM171400 15007KT P6SM SCT150
     FM172200 14008KT P6SM BKN250=



000
FTUS41 KBUF 170500
TAFART
TAF
KART 170529Z 1706/1806 VRB03KT P6SM FEW150
     FM170800 10004KT P6SM SCT150
     FM171400 15007KT P6SM SCT150
     FM172200 14008KT P6SM BKN250=



000
FTUS41 KBUF 170500
TAFBUF
TAF
KBUF 170529Z 1706/1806 10008KT P6SM SCT150
     FM171400 15009KT P6SM SCT200
     FM172200 16009KT P6SM BKN250=



000
FTUS41 KBUF 170500
TAFROC
TAF
KROC 170529Z 1706/1806 13005KT P6SM SCT150
     FM171600 14009KT P6SM SCT200
     FM172200 15010KT P6SM BKN250=



000
FTUS41 KBUF 170500
TAFJHW
TAF
KJHW 170529Z 1706/1806 12006KT P6SM SCT150
     FM171300 15011KT P6SM SCT150
     FM172200 17012KT P6SM BKN250
      AMD LTD TO CLD VIS AND WIND=



000
FTUS41 KBUF 170500
TAFIAG
TAF
KIAG 170529Z 1706/1806 10009KT P6SM SCT150
     FM171400 14010KT P6SM SCT200
     FM172200 16009KT P6SM BKN250=



000
FTUS41 KBUF 170200 AAA
TAFIAG
TAF AMD
KIAG 170253Z 1703/1724 VRB05KT P6SM SCT150
     FM171400 14010KT P6SM SCT150=



000
FTUS41 KBUF 170200 AAA
TAFROC
TAF AMD
KROC 170253Z 1703/1724 09005KT P6SM BKN200
     FM170600 13005KT P6SM SCT150
     FM171600 14009KT P6SM SCT200=



000
FTUS41 KBUF 170200 AAA
TAFJHW
TAF AMD
KJHW 170253Z 1703/1724 07005KT P6SM FEW200
     FM170600 12006KT P6SM SCT150
     FM171400 15011G18KT P6SM SCT150
      AMD LTD TO CLD VIS AND WIND=



000
FTUS41 KBUF 170200 AAA
TAFART
TAF AMD
KART 170253Z 1703/1724 10004KT P6SM SCT150
     FM171400 15007KT P6SM SCT150=



000
FTUS41 KBUF 170200 AAA
TAFBUF
TAF AMD
KBUF 170253Z 1703/1724 VRB06KT P6SM FEW200
     FM171400 15009KT P6SM SCT200=



000
FTUS41 KBUF 162300
TAFROC
TAF
KROC 162333Z 1700/1724 09005KT P6SM BKN200
     FM170600 13005KT P6SM SCT150
     FM171600 14009KT P6SM SCT200=



000
FTUS41 KBUF 162300
TAFART
TAF
KART 162333Z 1700/1724 23008KT P6SM SKC
     FM170300 10004KT P6SM SCT150
     FM171400 15007KT P6SM SCT150=



000
FTUS41 KBUF 162300
TAFIAG
TAF
KIAG 162333Z 1700/1724 20005KT P6SM FEW200
     FM170200 10005KT P6SM SCT150
     FM171400 14010KT P6SM SCT150=



000
FTUS41 KBUF 162300
TAFBUF
TAF
KBUF 162333Z 1700/1724 VRB03KT P6SM FEW045 FEW200
     FM170200 10005KT P6SM FEW200
     FM171400 15009KT P6SM SCT200=



000
FTUS41 KBUF 162300
TAFJHW
TAF
KJHW 162333Z 1700/1724 09005KT P6SM FEW200
     FM170600 12006KT P6SM SCT150
     FM171400 15011G18KT P6SM SCT150
      AMD LTD TO CLD VIS AND WIND=



000
FTUS41 KBUF 162000 AAA
TAFJHW
TAF AMD
KJHW 162048Z 1621/1718 VRB04KT P6SM SKC
     FM170100 06007KT P6SM FEW150
     FM170800 14010KT P6SM SCT150
     FM171300 15015G21KT P6SM SCT150
      AMD LTD TO CLD VIS AND WIND=



000
FTUS41 KBUF 162000 AAA
TAFART
TAF AMD
KART 162048Z 1621/1718 27006KT P6SM SKC
     FM170000 21005KT P6SM FEW250
     FM170800 13004KT P6SM SCT150
     FM171500 16008KT P6SM SCT200=



000
FTUS41 KBUF 162000 AAA
TAFBUF
TAF AMD
KBUF 162048Z 1621/1718 VRB03KT P6SM FEW045 SCT250
     FM170300 10006KT P6SM FEW150
     FM171400 14009KT P6SM SCT200=



000
FTUS41 KBUF 162000 AAA
TAFROC
TAF AMD
KROC 162048Z 1621/1718 08006KT P6SM SCT045
     FM162300 VRB04KT P6SM SCT045 SCT250
     FM170400 11004KT P6SM FEW250
     FM171300 14008KT P6SM SCT200=



000
FTUS41 KBUF 162000 AAA
TAFIAG
TAF AMD
KIAG 162048Z 1621/1718 17006KT P6SM SCT040 SCT250
     FM162300 VRB03KT P6SM FEW250
     FM170500 11006KT P6SM SCT150
     FM171700 15009KT P6SM SCT200=



000
FTUS41 KBUF 161700
TAFJHW
TAF
KJHW 161731Z 1618/1718 34004KT P6SM BKN040
     FM162000 02004KT P6SM SCT040 SCT200
     FM170100 06007KT P6SM FEW150
     FM170800 14010KT P6SM SCT150
     FM171300 15015G21KT P6SM SCT150
      AMD LTD TO CLD VIS AND WIND=



000
FTUS41 KBUF 161700
TAFROC
TAF
KROC 161731Z 1618/1718 35008KT P6SM BKN040
     FM162300 03005KT P6SM SCT040 SCT250
     FM170400 11004KT P6SM FEW250
     FM171300 14008KT P6SM SCT200=



000
FTUS41 KBUF 161700
TAFIAG
TAF
KIAG 161731Z 1618/1718 32008KT P6SM FEW045 FEW250
     FM162300 VRB03KT P6SM FEW250
     FM170500 11006KT P6SM SCT150
     FM171700 15009KT P6SM SCT200=



000
FTUS41 KBUF 161700
TAFART
TAF
KART 161731Z 1618/1718 28009KT P6SM SKC
     FM170000 21005KT P6SM FEW250
     FM170800 13004KT P6SM SCT150
     FM171500 16008KT P6SM SCT200=



000
FTUS41 KBUF 161700
TAFBUF
TAF
KBUF 161731Z 1618/1718 28005KT P6SM BKN045
     FM162300 VRB03KT P6SM FEW045 FEW250
     FM170300 10006KT P6SM FEW150
     FM171400 14009KT P6SM SCT200=



000
FTUS41 KBUF 161500 AAA
TAFART
TAF AMD
KART 161500Z 1615/1712 33006KT P6SM FEW040 SCT250
     FM170000 VRB03KT P6SM FEW250
     FM170400 VRB03KT P6SM SCT250=



000
FTUS41 KBUF 161500 AAA
TAFJHW
TAF AMD
KJHW 161500Z 1615/1712 29008KT P6SM BKN030 BKN250
     FM161700 03006KT P6SM SCT035 SCT250
     FM170000 06006KT P6SM FEW250
     FM170300 09007KT P6SM SCT250
     FM170600 14009KT P6SM SCT250
      AMD LTD TO CLD VIS AND WIND=



000
FTUS41 KBUF 161500 AAA
TAFBUF
TAF AMD
KBUF 161500Z 1615/1712 32007KT P6SM FEW040 FEW250
     FM162200 34004KT P6SM FEW250
     FM162300 06005KT P6SM FEW250
     FM170100 08006KT P6SM SCT250
     FM170600 11008KT P6SM SCT200=



000
FTUS41 KBUF 161500 AAA
TAFROC
TAF AMD
KROC 161500Z 1615/1712 33011KT P6SM FEW035 FEW250
     FM162000 35009KT P6SM FEW050 FEW250
     FM162300 03005KT P6SM FEW250
     FM170100 VRB03KT P6SM FEW250
     FM170400 12005KT P6SM SCT250=



000
FTUS41 KBUF 161500 AAA
TAFIAG
TAF AMD
KIAG 161500Z 1615/1712 32008KT P6SM FEW040 FEW250
     FM162200 36004KT P6SM FEW250
     FM162300 06004KT P6SM FEW250
     FM170100 08004KT P6SM SCT250
     FM170600 11008KT P6SM BKN200=



000
FTUS41 KBUF 161100
TAFBUF
TAF
KBUF 161120Z 1612/1712 29008KT P6SM FEW040 FEW250
     FM161700 28007KT P6SM FEW050 SCT250
     FM162200 34004KT P6SM FEW250
     FM162300 06005KT P6SM FEW250
     FM170100 08006KT P6SM SCT250
     FM170600 11008KT P6SM SCT200=



000
FTUS41 KBUF 161100
TAFIAG
TAF
KIAG 161120Z 1612/1712 32008KT P6SM FEW040 FEW250
     FM161700 31005KT P6SM FEW050 SCT250
     FM162200 36004KT P6SM FEW250
     FM162300 06004KT P6SM FEW250
     FM170100 08004KT P6SM SCT250
     FM170600 11008KT P6SM BKN200=



000
FTUS41 KBUF 161100
TAFROC
TAF
KROC 161120Z 1612/1712 30008KT P6SM BKN035
     FM161500 31011KT P6SM FEW050 FEW250
     FM162000 35009KT P6SM FEW050 FEW250
     FM162300 03005KT P6SM FEW250
     FM170100 VRB03KT P6SM FEW250
     FM170400 12005KT P6SM SCT250=



000
FTUS41 KBUF 161100
TAFJHW
TAF
KJHW 161120Z 1612/1712 29008KT P6SM FEW040 FEW250
     FM161500 35005KT P6SM FEW050 FEW250
     FM162000 03006KT P6SM FEW050 FEW250
     FM170000 06006KT P6SM FEW250
     FM170300 09007KT P6SM SCT250
     FM170600 14009KT P6SM SCT250
      AMD LTD TO CLD VIS AND WIND=



000
FTUS41 KBUF 161100
TAFART
TAF
KART 161120Z 1612/1712 33006KT P6SM FEW040 SCT250
     FM161400 30010KT P6SM FEW050 SCT250
     FM161700 25010KT P6SM FEW050 SCT250
     FM170000 VRB03KT P6SM FEW250
     FM170400 VRB03KT P6SM SCT250=



000
FTUS41 KBUF 160900 AAA
TAFROC
TAF AMD
KROC 160904Z 1609/1706 31008KT P6SM SCT025 BKN035
      TEMPO 1609/1611 BKN025
     FM161200 31011KT P6SM FEW045 FEW250
     FM162000 35009KT P6SM FEW050 FEW250
     FM162300 04005KT P6SM FEW250
     FM170100 VRB03KT P6SM FEW250=



000
FTUS41 KBUF 160900 AAA
TAFART
TAF AMD
KART 160904Z 1609/1706 35008KT P6SM SCT035
     FM161200 32010KT P6SM FEW040 FEW250
     FM161500 28010KT P6SM FEW050 SCT250
     FM161800 25009KT P6SM FEW050 SCT250
     FM170000 VRB03KT P6SM FEW250=



000
FTUS41 KBUF 160900 AAB
TAFIAG
TAF AMD
KIAG 160904Z 1609/1706 32012KT P6SM FEW040
     FM161200 30007KT P6SM FEW040 FEW250
     FM161500 30006KT P6SM FEW050 SCT250
     FM162200 36004KT P6SM FEW250
     FM162300 05004KT P6SM FEW250
     FM170200 09005KT P6SM SCT250=



000
FTUS41 KBUF 160900 AAA
TAFJHW
TAF AMD
KJHW 160904Z 1609/1706 32009KT P6SM FEW250
     FM161200 31005KT P6SM FEW040 FEW250
     FM161600 36005KT P6SM FEW050 FEW250
     FM162200 04006KT P6SM FEW250
     FM170200 09007KT P6SM SCT250
      AMD LTD TO CLD AND VIS=



000
FTUS41 KBUF 160900 AAA
TAFBUF
TAF AMD
KBUF 160904Z 1609/1706 31010KT P6SM FEW040
     FM161200 29007KT P6SM FEW040 FEW250
     FM161700 28007KT P6SM FEW050 SCT250
     FM162200 34004KT P6SM FEW250
     FM162300 06005KT P6SM FEW250
     FM170200 09006KT P6SM SCT250=



000
FTUS41 KBUF 160700 AAA
TAFIAG
TAF AMD
KIAG 160723Z 1607/1706 32017G25KT P6SM FEW050
     FM161000 30012KT P6SM FEW050
     FM161200 30007KT P6SM FEW040 FEW250
     FM161500 30006KT P6SM FEW050 SCT250
     FM162200 36004KT P6SM FEW250
     FM162300 05004KT P6SM FEW250
     FM170200 09005KT P6SM SCT250=



000
FTUS41 KBUF 160500
TAFIAG
TAF
KIAG 160532Z 1606/1706 30011KT P6SM FEW050
     FM161200 30007KT P6SM FEW040 FEW250
     FM161500 30006KT P6SM FEW050 SCT250
     FM162200 36004KT P6SM FEW250
     FM162300 05004KT P6SM FEW250
     FM170200 09005KT P6SM SCT250=



000
FTUS41 KBUF 160500
TAFART
TAF
KART 160532Z 1606/1706 31011KT P6SM BKN045
     FM160900 31012KT P6SM SCT250
     FM161200 32010KT P6SM FEW040 FEW250
     FM161500 28010KT P6SM FEW050 SCT250
     FM161800 25009KT P6SM FEW050 SCT250
     FM170000 VRB03KT P6SM FEW250=



000
FTUS41 KBUF 160500
TAFROC
TAF
KROC 160532Z 1606/1706 30013G20KT P6SM FEW035 BKN060
     FM160800 30011KT P6SM SCT060
     FM161200 31011KT P6SM FEW045 FEW250
     FM162000 35009KT P6SM FEW050 FEW250
     FM162300 04005KT P6SM FEW250
     FM170100 VRB03KT P6SM FEW250=



000
FTUS41 KBUF 160500
TAFBUF
TAF
KBUF 160532Z 1606/1706 30010KT P6SM FEW050
     FM161200 29007KT P6SM FEW040 FEW250
     FM161700 28007KT P6SM FEW050 SCT250
     FM162200 34004KT P6SM FEW250
     FM162300 06005KT P6SM FEW250
     FM170200 09006KT P6SM SCT250=



000
FTUS41 KBUF 160500
TAFJHW
TAF
KJHW 160532Z 1606/1706 32009KT P6SM FEW250
     FM161200 31005KT P6SM FEW040 FEW250
     FM161600 36005KT P6SM FEW050 FEW250
     FM162200 04006KT P6SM FEW250
     FM170200 09007KT P6SM SCT250
      AMD LTD TO CLD AND VIS=



    US Dept of Commerce
    National Oceanic and Atmospheric Administration
    National Weather Service
    1325 East West Highway
    Silver Spring, MD 20910
    Page Author: NWS Internet Services Team
Disclaimer
Information Quality
Credits
Glossary
Privacy Policy
Freedom of Information Act (FOIA)
About Us
Career Opportunities